createdAt,value
2018-11-29T00:05:49.419Z,6.23
2018-11-29T00:11:52.700Z,6.70
2018-11-29T00:17:55.960Z,6.37
2018-11-29T00:23:59.209Z,6.00
2018-11-29T00:30:03.266Z,5.77
2018-11-29T00:36:06.514Z,6.47
2018-11-29T00:42:09.755Z,6.00
2018-11-29T00:48:13.371Z,5.90
2018-11-29T00:54:16.901Z,6.67
2018-11-29T01:00:23.533Z,6.10
2018-11-29T01:06:27.031Z,6.23
2018-11-29T01:12:30.889Z,6.63
2018-11-29T01:18:34.209Z,6.17
2018-11-29T01:24:37.483Z,5.73
2018-11-29T01:30:40.729Z,6.70
2018-11-29T01:36:44.042Z,6.20
2018-11-29T01:42:54.962Z,5.97
2018-11-29T01:48:58.350Z,5.87
2018-11-29T01:55:01.618Z,6.27
2018-11-29T02:01:05.165Z,6.30
2018-11-29T02:07:08.425Z,6.40
2018-11-29T02:13:11.767Z,5.73
2018-11-29T02:19:20.392Z,6.43
2018-11-29T02:25:23.771Z,6.30
2018-11-29T02:31:31.595Z,7.30
2018-11-29T02:37:34.843Z,7.07
2018-11-29T02:43:38.276Z,6.40
2018-11-29T02:49:41.531Z,7.23
2018-11-29T02:55:44.764Z,6.90
2018-11-29T03:01:48.268Z,7.23
2018-11-29T03:07:51.825Z,7.10
2018-11-29T03:13:55.201Z,7.37
2018-11-29T03:19:58.628Z,7.57
2018-11-29T03:26:01.887Z,8.20
2018-11-29T03:32:05.326Z,7.20
2018-11-29T03:38:08.981Z,7.50
2018-11-29T03:44:12.361Z,7.90
2018-11-29T03:50:17.837Z,7.47
2018-11-29T03:56:21.022Z,7.67
2018-11-29T04:02:24.290Z,7.20
2018-11-29T04:08:27.538Z,7.33
2018-11-29T04:14:30.829Z,7.67
2018-11-29T04:20:34.118Z,7.80
2018-11-29T04:26:37.535Z,8.10
2018-11-29T04:32:41.144Z,8.40
2018-11-29T04:38:44.401Z,8.80
2018-11-29T04:44:47.639Z,8.43
2018-11-29T04:50:50.969Z,8.57
2018-11-29T04:56:54.263Z,8.80
2018-11-29T05:02:57.524Z,8.63
2018-11-29T05:09:00.871Z,9.03
2018-11-29T05:15:05.735Z,8.60
2018-11-29T05:21:09.143Z,9.60
2018-11-29T05:27:12.678Z,9.53
2018-11-29T05:33:15.923Z,9.87
2018-11-29T05:39:19.190Z,10.47
2018-11-29T05:45:22.431Z,10.23
2018-11-29T05:51:26.049Z,10.50
2018-11-29T05:57:30.665Z,10.97
2018-11-29T06:03:34.101Z,12.13
2018-11-29T06:09:37.536Z,13.00
2018-11-29T06:15:40.867Z,13.00
2018-11-29T06:21:44.546Z,13.13
2018-11-29T06:27:47.941Z,13.43
2018-11-29T06:33:51.200Z,14.20
2018-11-29T06:39:54.472Z,12.80
2018-11-29T06:45:57.743Z,15.23
2018-11-29T06:52:01.006Z,13.53
2018-11-29T06:58:04.820Z,14.33
2018-11-29T07:04:08.096Z,15.17
2018-11-29T07:10:11.819Z,15.17
2018-11-29T07:16:15.556Z,15.47
2018-11-29T07:22:18.921Z,15.37
2018-11-29T07:28:22.290Z,14.17
2018-11-29T07:34:44.914Z,14.07
2018-11-29T07:40:48.322Z,14.47
2018-11-29T07:46:51.616Z,13.90
2018-11-29T07:52:54.902Z,13.57
2018-11-29T07:58:58.372Z,13.13
2018-11-29T08:05:02.759Z,14.60
2018-11-29T08:11:06.662Z,13.67
2018-11-29T08:17:09.962Z,12.50
2018-11-29T08:23:13.630Z,14.00
2018-11-29T08:29:16.902Z,13.30
2018-11-29T08:35:20.218Z,13.13
2018-11-29T08:41:23.474Z,13.83
2018-11-29T08:47:26.824Z,11.47
2018-11-29T08:53:30.161Z,12.13
2018-11-29T08:59:33.627Z,13.13
2018-11-29T09:05:36.910Z,11.70
2018-11-29T09:11:40.339Z,11.20
2018-11-29T09:17:43.908Z,10.87
2018-11-29T09:23:47.162Z,10.17
2018-11-29T09:29:50.637Z,10.30
2018-11-29T09:35:54.297Z,10.03
2018-11-29T09:41:57.778Z,9.47
2018-11-29T09:48:01.056Z,9.20
2018-11-29T09:54:04.592Z,11.23
2018-11-29T10:00:27.803Z,9.77
2018-11-29T10:06:24.992Z,9.67
2018-11-29T10:12:28.348Z,9.07
2018-11-29T10:18:31.793Z,9.23
2018-11-29T10:24:35.245Z,9.10
2018-11-29T10:30:53.970Z,9.20
2018-11-29T10:36:57.515Z,10.00
2018-11-29T10:43:00.874Z,9.77
2018-11-29T10:49:04.405Z,9.43
2018-11-29T10:55:11.922Z,11.10
2018-11-29T11:02:24.582Z,10.60
2018-11-29T11:08:27.837Z,9.57
2018-11-29T11:14:31.153Z,9.70
2018-11-29T11:20:34.723Z,9.10
2018-11-29T11:26:38.082Z,9.27
2018-11-29T11:32:42.418Z,9.57
2018-11-29T11:38:46.451Z,9.13
2018-11-29T11:44:49.667Z,9.20
2018-11-29T11:50:52.936Z,9.20
2018-11-29T11:56:56.353Z,10.43
2018-11-29T12:03:09.540Z,10.77
2018-11-29T12:09:12.927Z,12.70
2018-11-29T12:15:16.286Z,11.63
2018-11-29T12:21:19.521Z,10.27
2018-11-29T12:27:23.014Z,9.33
2018-11-29T12:33:26.519Z,9.20
2018-11-29T12:39:29.862Z,8.30
2018-11-29T12:45:33.472Z,6.77
2018-11-29T12:51:37.127Z,7.53
2018-11-29T12:57:42.173Z,8.53
2018-11-29T13:03:44.490Z,8.87
2018-11-29T13:09:48.032Z,8.20
2018-11-29T13:15:51.609Z,10.13
2018-11-29T13:21:54.957Z,9.30
2018-11-29T13:27:58.294Z,9.13
2018-11-29T13:34:01.905Z,9.13
2018-11-29T13:40:10.015Z,9.37
2018-11-29T13:46:13.606Z,10.67
2018-11-29T13:52:16.939Z,10.50
2018-11-29T13:58:20.198Z,10.20
2018-11-29T14:04:23.499Z,10.27
2018-11-29T14:10:26.759Z,10.13
2018-11-29T14:16:30.053Z,8.80
2018-11-29T14:22:33.331Z,8.53
2018-11-29T14:28:37.006Z,7.77
2018-11-29T14:34:40.513Z,9.00
2018-11-29T14:40:44.135Z,7.07
2018-11-29T14:46:47.509Z,6.77
2018-11-29T14:52:51.103Z,7.27
2018-11-29T14:58:55.113Z,7.40
2018-11-29T15:04:58.438Z,7.23
2018-11-29T15:11:02.443Z,7.20
2018-11-29T15:17:06.121Z,8.40
2018-11-29T15:23:10.574Z,8.13
2018-11-29T15:29:13.910Z,8.37
2018-11-29T15:35:17.271Z,8.67
2018-11-29T15:41:20.548Z,7.97
2018-11-29T15:47:23.854Z,8.63
2018-11-29T15:53:27.226Z,8.40
2018-11-29T15:59:30.505Z,8.00
2018-11-29T16:05:33.834Z,8.20
2018-11-29T16:11:37.119Z,9.73
2018-11-29T16:17:40.425Z,8.73
2018-11-29T16:23:43.667Z,9.43
2018-11-29T16:29:47.353Z,8.30
2018-11-29T16:35:50.806Z,7.53
2018-11-29T16:41:54.035Z,8.33
2018-11-29T16:47:57.542Z,7.57
2018-11-29T16:54:00.805Z,8.87
2018-11-29T17:00:09.558Z,9.10
2018-11-29T17:06:12.992Z,8.30
2018-11-29T17:12:20.655Z,8.23
2018-11-29T17:18:24.215Z,7.93
2018-11-29T17:24:27.597Z,9.73
2018-11-29T17:30:31.264Z,8.17
2018-11-29T17:36:34.573Z,8.97
2018-11-29T17:42:37.861Z,7.87
2018-11-29T17:48:42.089Z,8.17
2018-11-29T17:54:45.604Z,8.40
2018-11-29T18:00:50.987Z,8.23
2018-11-29T18:06:54.340Z,8.27
2018-11-29T18:13:15.069Z,8.90
2018-11-29T18:19:18.404Z,9.00
2018-11-29T18:25:22.080Z,8.67
2018-11-29T18:31:25.306Z,9.13
2018-11-29T18:37:28.555Z,9.77
2018-11-29T18:43:32.901Z,8.67
2018-11-29T18:49:36.214Z,9.10
2018-11-29T18:55:39.583Z,9.73
2018-11-29T19:01:43.142Z,8.83
2018-11-29T19:07:46.397Z,9.30
2018-11-29T19:13:49.777Z,8.70
2018-11-29T19:19:53.337Z,8.90
2018-11-29T19:25:56.816Z,9.00
2018-11-29T19:32:00.395Z,8.97
2018-11-29T19:38:04.171Z,8.73
2018-11-29T19:44:07.563Z,8.57
2018-11-29T19:50:15.930Z,8.93
2018-11-29T19:56:19.270Z,8.07
2018-11-29T20:02:22.557Z,7.63
2018-11-29T20:08:26.054Z,8.63
2018-11-29T20:14:29.523Z,8.80
2018-11-29T20:20:33.277Z,9.63
2018-11-29T20:26:36.769Z,9.10
2018-11-29T20:32:40.214Z,9.07
2018-11-29T20:38:44.730Z,8.47
2018-11-29T20:44:48.017Z,7.73
2018-11-29T20:50:53.084Z,9.30
2018-11-29T20:56:56.750Z,8.27
2018-11-29T21:03:00.248Z,7.10
2018-11-29T21:09:05.491Z,8.07
2018-11-29T21:15:08.916Z,6.97
2018-11-29T21:21:13.294Z,7.57
2018-11-29T21:27:17.488Z,7.30
2018-11-29T21:33:23.756Z,7.67
2018-11-29T21:39:27.338Z,6.80
2018-11-29T21:45:30.986Z,6.83
2018-11-29T21:51:34.813Z,7.17
2018-11-29T21:57:38.916Z,7.00
2018-11-29T22:03:42.374Z,8.67
2018-11-29T22:09:45.771Z,7.13
2018-11-29T22:15:49.146Z,7.00
2018-11-29T22:21:53.106Z,7.17
2018-11-29T22:27:57.987Z,7.87
2018-11-29T22:34:01.287Z,6.87
2018-11-29T22:40:05.759Z,6.80
2018-11-29T22:46:09.054Z,7.03
2018-11-29T22:52:12.411Z,6.80
2018-11-29T22:58:16.046Z,6.57
2018-11-29T23:04:19.450Z,6.50
2018-11-29T23:10:22.702Z,8.10
2018-11-29T23:16:26.081Z,6.57
2018-11-29T23:22:29.365Z,6.20
2018-11-29T23:28:33.017Z,6.20
2018-11-29T23:34:36.442Z,5.90
2018-11-29T23:40:39.947Z,6.27
2018-11-29T23:46:43.417Z,5.97
2018-11-29T23:52:47.072Z,6.07
2018-11-29T23:58:50.562Z,5.40
